createdAt,value
2023-03-07T00:01:58.705Z,10.65
2023-03-07T00:07:00.232Z,10.30
2023-03-07T00:12:01.615Z,11.05
2023-03-07T00:17:02.972Z,10.18
2023-03-07T00:22:04.459Z,10.70
2023-03-07T00:27:06.265Z,10.52
2023-03-07T00:32:07.720Z,12.73
2023-03-07T00:37:09.250Z,12.68
2023-03-07T00:42:10.578Z,14.13
2023-03-07T00:47:12.199Z,13.82
2023-03-07T00:52:13.524Z,13.88
2023-03-07T00:57:14.856Z,14.48
2023-03-07T01:02:16.331Z,15.20
2023-03-07T01:07:17.776Z,15.05
2023-03-07T01:12:19.115Z,14.73
2023-03-07T01:17:20.482Z,15.35
2023-03-07T01:22:21.798Z,15.32
2023-03-07T01:27:23.763Z,15.40
2023-03-07T01:32:25.286Z,17.77
2023-03-07T01:37:26.704Z,17.70
2023-03-07T01:42:31.449Z,18.10
2023-03-07T01:47:32.856Z,17.25
2023-03-07T01:52:41.658Z,16.98
2023-03-07T01:57:45.793Z,17.13
2023-03-07T02:02:53.598Z,17.88
2023-03-07T02:12:58.363Z,16.75
2023-03-07T02:17:59.868Z,16.20
2023-03-07T02:23:01.968Z,18.48
2023-03-07T02:28:04.447Z,18.30
2023-03-07T02:33:05.805Z,17.85
2023-03-07T02:38:07.494Z,17.40
2023-03-07T02:43:09.620Z,17.90
2023-03-07T02:48:11.134Z,16.73
2023-03-07T02:53:12.454Z,17.60
2023-03-07T02:58:13.812Z,17.27
2023-03-07T03:03:15.230Z,17.60
2023-03-07T03:08:16.558Z,15.73
2023-03-07T03:13:17.900Z,16.05
2023-03-07T03:18:19.358Z,17.77
2023-03-07T03:23:21.071Z,18.02
2023-03-07T03:28:22.763Z,15.95
2023-03-07T03:33:24.095Z,13.95
2023-03-07T03:38:26.770Z,14.07
2023-03-07T03:43:28.122Z,13.95
2023-03-07T03:48:29.730Z,13.07
2023-03-07T03:53:33.331Z,13.45
2023-03-07T03:58:35.679Z,10.45
2023-03-07T04:03:43.316Z,10.88
2023-03-07T04:08:46.364Z,11.50
2023-03-07T04:13:47.776Z,10.90
2023-03-07T04:18:50.890Z,11.63
2023-03-07T04:23:55.494Z,10.50
2023-03-07T04:28:56.906Z,10.75
2023-03-07T04:33:58.602Z,11.20
2023-03-07T04:38:59.917Z,10.32
2023-03-07T04:44:01.380Z,9.25
2023-03-07T04:49:02.742Z,10.07
2023-03-07T04:54:04.169Z,11.30
2023-03-07T04:59:05.503Z,10.57
2023-03-07T05:04:06.863Z,9.90
2023-03-07T05:09:08.226Z,11.55
2023-03-07T05:14:09.571Z,10.75
2023-03-07T05:19:10.955Z,10.38
2023-03-07T05:24:12.296Z,11.75
2023-03-07T05:29:13.748Z,11.70
2023-03-07T05:34:15.945Z,12.40
2023-03-07T05:39:17.475Z,12.63
2023-03-07T05:44:19.620Z,12.57
2023-03-07T05:49:21.165Z,13.00
2023-03-07T05:54:22.597Z,13.48
2023-03-07T05:59:23.926Z,12.15
2023-03-07T06:04:25.339Z,12.82
2023-03-07T06:09:28.052Z,11.50
2023-03-07T06:14:31.194Z,13.85
2023-03-07T06:19:33.854Z,12.45
2023-03-07T06:24:35.204Z,11.52
2023-03-07T06:29:37.005Z,12.55
2023-03-07T06:34:38.372Z,12.70
2023-03-07T06:39:39.834Z,11.20
2023-03-07T06:44:43.760Z,11.98
2023-03-07T06:49:45.209Z,11.27
2023-03-07T06:54:46.733Z,11.45
2023-03-07T06:59:48.082Z,11.48
2023-03-07T07:04:49.505Z,11.13
2023-03-07T07:09:51.429Z,11.57
2023-03-07T07:14:52.818Z,10.10
2023-03-07T07:19:54.178Z,11.40
2023-03-07T07:24:55.571Z,10.60
2023-03-07T07:29:56.929Z,11.07
2023-03-07T07:34:58.326Z,11.35
2023-03-07T07:39:59.696Z,10.50
2023-03-07T07:45:01.351Z,10.13
2023-03-07T07:50:02.818Z,9.63
2023-03-07T07:55:04.477Z,10.40
2023-03-07T08:00:06.776Z,9.52
2023-03-07T08:05:12.594Z,9.75
2023-03-07T08:10:16.010Z,11.13
2023-03-07T08:15:19.378Z,9.20
2023-03-07T08:20:23.406Z,9.98
2023-03-07T08:25:25.584Z,10.32
2023-03-07T08:30:30.186Z,9.98
2023-03-07T08:35:32.266Z,9.60
2023-03-07T08:40:33.763Z,10.60
2023-03-07T08:45:35.130Z,9.38
2023-03-07T08:50:38.771Z,9.10
2023-03-07T08:55:40.110Z,8.93
2023-03-07T09:00:41.574Z,8.77
2023-03-07T09:05:42.960Z,8.48
2023-03-07T09:10:44.369Z,7.85
2023-03-07T09:15:45.924Z,7.82
2023-03-07T09:20:47.264Z,8.25
2023-03-07T09:25:48.627Z,7.95
2023-03-07T09:30:49.992Z,7.13
2023-03-07T09:35:51.460Z,7.60
2023-03-07T09:40:53.092Z,7.57
2023-03-07T09:46:13.105Z,6.30
2023-03-07T09:51:50.449Z,6.25
2023-03-07T09:56:55.498Z,6.60
2023-03-07T10:02:17.172Z,5.18
2023-03-07T10:07:23.227Z,5.82
2023-03-07T10:12:55.213Z,5.47
2023-03-07T10:18:12.116Z,5.78
2023-03-07T10:23:32.808Z,5.40
2023-03-07T10:28:37.096Z,5.85
2023-03-07T10:33:40.620Z,5.85
2023-03-07T10:39:06.426Z,6.07
2023-03-07T10:44:17.418Z,5.05
2023-03-07T10:49:25.087Z,5.65
2023-03-07T10:54:38.323Z,5.53
2023-03-07T10:59:45.195Z,5.05
2023-03-07T11:04:47.121Z,4.40
2023-03-07T11:09:49.260Z,3.72
2023-03-07T11:14:52.410Z,5.43
2023-03-07T11:19:57.976Z,4.18
2023-03-07T11:25:13.942Z,4.57
2023-03-07T11:30:21.936Z,4.38
2023-03-07T11:35:52.676Z,5.68
2023-03-07T11:41:07.969Z,4.53
2023-03-07T11:46:24.942Z,4.45
2023-03-07T11:51:53.468Z,3.87
2023-03-07T11:57:06.159Z,3.90
2023-03-07T12:02:46.659Z,3.42
2023-03-07T12:08:13.047Z,5.22
2023-03-07T12:13:43.447Z,3.00
2023-03-07T12:18:55.751Z,3.58
2023-03-07T12:24:03.201Z,3.60
2023-03-07T12:29:20.627Z,4.72
2023-03-07T12:34:46.008Z,4.63
2023-03-07T12:40:10.934Z,4.13
2023-03-07T12:45:26.064Z,3.60
2023-03-07T12:50:41.258Z,4.32
2023-03-07T12:55:50.449Z,3.80
2023-03-07T13:00:59.748Z,4.28
2023-03-07T13:06:01.511Z,3.40
2023-03-07T13:11:03.364Z,3.17
2023-03-07T13:16:05.643Z,2.97
2023-03-07T13:21:08.533Z,3.60
2023-03-07T13:26:11.827Z,3.22
2023-03-07T13:31:29.309Z,3.60
2023-03-07T13:36:38.654Z,3.45
2023-03-07T13:41:46.601Z,3.60
2023-03-07T13:46:48.830Z,4.05
2023-03-07T13:52:35.337Z,3.33
2023-03-07T13:57:39.022Z,3.75
2023-03-07T14:02:43.596Z,2.88
2023-03-07T14:07:51.355Z,3.85
2023-03-07T14:13:11.174Z,3.30
2023-03-07T14:18:35.072Z,3.70
2023-03-07T14:24:09.932Z,3.75
2023-03-07T14:29:26.038Z,2.83
2023-03-07T14:34:33.645Z,3.05
2023-03-07T14:45:16.160Z,3.60
2023-03-07T14:50:23.315Z,4.00
2023-03-07T14:55:35.860Z,3.92
2023-03-07T15:00:37.258Z,4.90
2023-03-07T15:05:48.205Z,4.28
2023-03-07T15:10:57.667Z,5.25
2023-03-07T15:16:03.680Z,4.40
2023-03-07T15:21:07.445Z,3.88
2023-03-07T15:26:20.965Z,3.70
2023-03-07T15:31:23.065Z,3.63
2023-03-07T15:36:27.004Z,2.83
2023-03-07T15:41:37.153Z,3.17
2023-03-07T15:46:48.623Z,3.13
2023-03-07T15:51:54.275Z,3.22
2023-03-07T15:56:59.369Z,2.53
2023-03-07T16:02:34.896Z,2.20
2023-03-07T16:07:36.322Z,2.45
2023-03-07T16:12:45.982Z,2.63
2023-03-07T16:17:54.932Z,2.53
2023-03-07T16:22:56.483Z,2.92
2023-03-07T16:27:59.155Z,3.40
2023-03-07T16:33:00.520Z,4.05
2023-03-07T16:38:01.859Z,3.30
2023-03-07T16:43:03.326Z,3.78
2023-03-07T16:48:04.860Z,3.40
2023-03-07T16:53:06.331Z,4.13
2023-03-07T16:58:19.680Z,3.67
2023-03-07T17:03:21.675Z,4.50
2023-03-07T17:08:23.076Z,4.07
2023-03-07T17:13:24.476Z,4.95
2023-03-07T17:18:26.636Z,5.45
2023-03-07T17:23:28.057Z,5.78
2023-03-07T17:28:29.573Z,6.13
2023-03-07T17:33:31.000Z,6.55
2023-03-07T17:38:32.438Z,7.50
2023-03-07T17:43:34.029Z,4.82
2023-03-07T17:48:35.698Z,5.75
2023-03-07T17:53:38.329Z,6.13
2023-03-07T17:58:39.715Z,6.28
2023-03-07T18:03:48.751Z,6.03
2023-03-07T18:08:50.673Z,5.82
2023-03-07T18:13:52.082Z,6.45
2023-03-07T18:18:59.448Z,5.57
2023-03-07T18:24:03.067Z,5.43
2023-03-07T18:29:04.561Z,5.22
2023-03-07T18:34:06.116Z,5.43
2023-03-07T18:39:11.086Z,4.63
2023-03-07T18:44:12.484Z,6.35
2023-03-07T18:49:16.157Z,4.93
2023-03-07T18:54:17.895Z,5.50
2023-03-07T18:59:19.486Z,6.28
2023-03-07T19:04:20.867Z,5.65
2023-03-07T19:09:23.721Z,4.75
2023-03-07T19:14:26.438Z,6.32
2023-03-07T19:19:27.950Z,6.18
2023-03-07T19:24:29.444Z,5.68
2023-03-07T19:29:31.032Z,6.22
2023-03-07T19:34:32.439Z,5.25
2023-03-07T19:39:34.239Z,5.50
2023-03-07T19:44:35.808Z,5.53
2023-03-07T19:49:37.718Z,7.20
2023-03-07T19:54:40.650Z,7.00
2023-03-07T19:59:42.105Z,4.72
2023-03-07T20:04:43.545Z,3.38
2023-03-07T20:09:45.011Z,2.78
2023-03-07T20:14:46.632Z,3.05
2023-03-07T20:19:50.520Z,3.22
2023-03-07T20:24:52.358Z,3.50
2023-03-07T20:29:53.965Z,3.95
2023-03-07T20:34:57.637Z,4.13
2023-03-07T20:40:02.617Z,2.95
2023-03-07T20:45:05.659Z,2.50
2023-03-07T20:50:07.551Z,2.95
2023-03-07T20:55:09.210Z,2.83
2023-03-07T21:00:11.414Z,2.72
2023-03-07T21:05:12.837Z,3.35
2023-03-07T21:10:14.567Z,3.33
2023-03-07T21:15:16.058Z,2.70
2023-03-07T21:20:17.544Z,1.80
2023-03-07T21:25:18.951Z,1.00
2023-03-07T21:30:20.453Z,0.55
2023-03-07T21:35:21.848Z,0.40
2023-03-07T21:40:23.265Z,0.50
2023-03-07T21:45:25.749Z,0.40
2023-03-07T21:50:27.683Z,0.80
2023-03-07T21:55:29.089Z,1.80
2023-03-07T22:00:30.862Z,0.52
2023-03-07T22:05:32.278Z,0.47
2023-03-07T22:10:33.769Z,0.80
2023-03-07T22:15:35.211Z,0.68
2023-03-07T22:20:38.244Z,1.00
2023-03-07T22:25:39.691Z,0.90
2023-03-07T22:30:41.161Z,0.90
2023-03-07T22:35:42.660Z,0.70
2023-03-07T22:40:44.011Z,0.65
2023-03-07T22:45:50.643Z,0.82
2023-03-07T22:50:52.223Z,0.70
2023-03-07T22:55:53.723Z,0.70
2023-03-07T23:00:55.122Z,0.60
2023-03-07T23:05:59.635Z,0.82
2023-03-07T23:11:03.619Z,0.75
2023-03-07T23:16:16.479Z,1.70
2023-03-07T23:21:23.672Z,1.00
2023-03-07T23:26:28.031Z,1.50
2023-03-07T23:31:32.458Z,0.90
2023-03-07T23:36:34.519Z,0.70
2023-03-07T23:41:36.264Z,0.65
2023-03-07T23:46:37.968Z,0.98
2023-03-07T23:51:39.465Z,0.88
2023-03-07T23:56:40.826Z,0.88
